sensor_id;sensor_type;location;lat;lon;timestamp;P1;durP1;ratioP1;P2;durP2;ratioP2
8058;SDS011;4072;42.668;23.396;2023-07-24T00:00:05;10.60;;;8.77;;
8058;SDS011;4072;42.668;23.396;2023-07-24T00:02:34;9.53;;;8.53;;
8058;SDS011;4072;42.668;23.396;2023-07-24T00:05:03;10.17;;;8.37;;
8058;SDS011;4072;42.668;23.396;2023-07-24T00:07:31;10.97;;;8.80;;
8058;SDS011;4072;42.668;23.396;2023-07-24T00:10:00;10.43;;;8.13;;
8058;SDS011;4072;42.668;23.396;2023-07-24T00:12:28;14.10;;;9.30;;
8058;SDS011;4072;42.668;23.396;2023-07-24T00:14:56;10.77;;;8.63;;
8058;SDS011;4072;42.668;23.396;2023-07-24T00:17:26;11.33;;;9.00;;
8058;SDS011;4072;42.668;23.396;2023-07-24T00:19:54;11.27;;;8.47;;
8058;SDS011;4072;42.668;23.396;2023-07-24T00:22:23;10.20;;;9.10;;
8058;SDS011;4072;42.668;23.396;2023-07-24T00:24:51;11.73;;;8.17;;
8058;SDS011;4072;42.668;23.396;2023-07-24T00:27:19;11.30;;;8.97;;
8058;SDS011;4072;42.668;23.396;2023-07-24T00:29:47;9.77;;;8.03;;
8058;SDS011;4072;42.668;23.396;2023-07-24T00:32:17;11.33;;;8.67;;
8058;SDS011;4072;42.668;23.396;2023-07-24T00:34:46;11.00;;;8.10;;
8058;SDS011;4072;42.668;23.396;2023-07-24T00:37:14;14.57;;;8.97;;
8058;SDS011;4072;42.668;23.396;2023-07-24T00:39:43;11.07;;;8.33;;
8058;SDS011;4072;42.668;23.396;2023-07-24T00:42:11;11.07;;;9.23;;
8058;SDS011;4072;42.668;23.396;2023-07-24T00:44:41;10.97;;;8.83;;
8058;SDS011;4072;42.668;23.396;2023-07-24T00:47:09;11.50;;;8.93;;
8058;SDS011;4072;42.668;23.396;2023-07-24T00:49:38;11.87;;;8.10;;
8058;SDS011;4072;42.668;23.396;2023-07-24T00:52:08;13.53;;;9.30;;
8058;SDS011;4072;42.668;23.396;2023-07-24T00:54:36;11.87;;;9.17;;
8058;SDS011;4072;42.668;23.396;2023-07-24T00:57:06;18.00;;;8.87;;
8058;SDS011;4072;42.668;23.396;2023-07-24T00:59:34;12.07;;;8.87;;
8058;SDS011;4072;42.668;23.396;2023-07-24T01:02:03;14.30;;;9.23;;
8058;SDS011;4072;42.668;23.396;2023-07-24T01:04:32;10.57;;;8.67;;
8058;SDS011;4072;42.668;23.396;2023-07-24T01:07:00;11.80;;;9.17;;
8058;SDS011;4072;42.668;23.396;2023-07-24T01:09:33;12.73;;;9.13;;
8058;SDS011;4072;42.668;23.396;2023-07-24T01:12:02;10.27;;;8.67;;
8058;SDS011;4072;42.668;23.396;2023-07-24T01:14:39;14.37;;;9.43;;
8058;SDS011;4072;42.668;23.396;2023-07-24T01:17:14;13.70;;;9.17;;
8058;SDS011;4072;42.668;23.396;2023-07-24T01:19:46;10.43;;;8.70;;
8058;SDS011;4072;42.668;23.396;2023-07-24T01:22:19;13.10;;;9.77;;
8058;SDS011;4072;42.668;23.396;2023-07-24T01:25:04;11.37;;;9.07;;
8058;SDS011;4072;42.668;23.396;2023-07-24T01:27:41;10.40;;;8.53;;
8058;SDS011;4072;42.668;23.396;2023-07-24T01:30:10;10.00;;;8.43;;
8058;SDS011;4072;42.668;23.396;2023-07-24T01:32:39;10.27;;;8.97;;
8058;SDS011;4072;42.668;23.396;2023-07-24T01:35:07;11.37;;;9.10;;
8058;SDS011;4072;42.668;23.396;2023-07-24T01:37:36;11.17;;;8.60;;
8058;SDS011;4072;42.668;23.396;2023-07-24T01:40:07;11.90;;;9.37;;
8058;SDS011;4072;42.668;23.396;2023-07-24T01:42:37;13.03;;;8.93;;
8058;SDS011;4072;42.668;23.396;2023-07-24T01:45:10;11.90;;;8.30;;
8058;SDS011;4072;42.668;23.396;2023-07-24T01:47:38;8.93;;;7.87;;
8058;SDS011;4072;42.668;23.396;2023-07-24T01:50:07;8.83;;;7.90;;
8058;SDS011;4072;42.668;23.396;2023-07-24T01:52:36;9.00;;;8.10;;
8058;SDS011;4072;42.668;23.396;2023-07-24T01:55:04;8.90;;;7.87;;
8058;SDS011;4072;42.668;23.396;2023-07-24T01:57:35;9.23;;;7.90;;
8058;SDS011;4072;42.668;23.396;2023-07-24T02:00:04;9.97;;;8.97;;
8058;SDS011;4072;42.668;23.396;2023-07-24T02:02:34;11.33;;;8.23;;
8058;SDS011;4072;42.668;23.396;2023-07-24T02:05:03;10.37;;;8.80;;
8058;SDS011;4072;42.668;23.396;2023-07-24T02:07:31;9.90;;;8.87;;
8058;SDS011;4072;42.668;23.396;2023-07-24T02:09:59;12.00;;;8.93;;
8058;SDS011;4072;42.668;23.396;2023-07-24T02:12:29;11.10;;;9.13;;
8058;SDS011;4072;42.668;23.396;2023-07-24T02:14:57;11.80;;;9.37;;
8058;SDS011;4072;42.668;23.396;2023-07-24T02:17:26;12.90;;;10.33;;
8058;SDS011;4072;42.668;23.396;2023-07-24T02:19:56;11.83;;;9.60;;
8058;SDS011;4072;42.668;23.396;2023-07-24T02:22:24;12.03;;;10.00;;
8058;SDS011;4072;42.668;23.396;2023-07-24T02:24:52;10.80;;;9.47;;
8058;SDS011;4072;42.668;23.396;2023-07-24T02:27:27;11.87;;;9.57;;
8058;SDS011;4072;42.668;23.396;2023-07-24T02:29:57;13.10;;;9.77;;
8058;SDS011;4072;42.668;23.396;2023-07-24T02:32:26;11.13;;;9.90;;
8058;SDS011;4072;42.668;23.396;2023-07-24T02:35:01;14.60;;;9.30;;
8058;SDS011;4072;42.668;23.396;2023-07-24T02:37:29;10.97;;;9.00;;
8058;SDS011;4072;42.668;23.396;2023-07-24T02:39:57;12.10;;;9.80;;
8058;SDS011;4072;42.668;23.396;2023-07-24T02:42:25;16.13;;;10.37;;
8058;SDS011;4072;42.668;23.396;2023-07-24T02:44:54;12.13;;;9.80;;
8058;SDS011;4072;42.668;23.396;2023-07-24T02:47:22;14.93;;;9.83;;
8058;SDS011;4072;42.668;23.396;2023-07-24T02:49:50;12.37;;;9.83;;
8058;SDS011;4072;42.668;23.396;2023-07-24T02:52:21;16.10;;;11.20;;
8058;SDS011;4072;42.668;23.396;2023-07-24T02:54:50;11.93;;;9.13;;
8058;SDS011;4072;42.668;23.396;2023-07-24T02:57:18;11.97;;;10.53;;
8058;SDS011;4072;42.668;23.396;2023-07-24T02:59:47;11.13;;;9.50;;
8058;SDS011;4072;42.668;23.396;2023-07-24T03:02:15;15.37;;;10.70;;
8058;SDS011;4072;42.668;23.396;2023-07-24T03:04:43;12.97;;;9.53;;
8058;SDS011;4072;42.668;23.396;2023-07-24T03:07:11;12.13;;;10.00;;
8058;SDS011;4072;42.668;23.396;2023-07-24T03:09:41;13.67;;;10.17;;
8058;SDS011;4072;42.668;23.396;2023-07-24T03:12:09;12.93;;;10.00;;
8058;SDS011;4072;42.668;23.396;2023-07-24T03:14:37;16.27;;;10.60;;
8058;SDS011;4072;42.668;23.396;2023-07-24T03:17:06;13.23;;;9.83;;
8058;SDS011;4072;42.668;23.396;2023-07-24T03:19:34;12.37;;;9.23;;
8058;SDS011;4072;42.668;23.396;2023-07-24T03:22:02;12.40;;;9.63;;
8058;SDS011;4072;42.668;23.396;2023-07-24T03:24:31;13.43;;;9.20;;
8058;SDS011;4072;42.668;23.396;2023-07-24T03:26:59;13.63;;;9.70;;
8058;SDS011;4072;42.668;23.396;2023-07-24T03:29:28;10.07;;;9.00;;
8058;SDS011;4072;42.668;23.396;2023-07-24T03:31:56;12.20;;;10.07;;
8058;SDS011;4072;42.668;23.396;2023-07-24T03:34:24;14.63;;;9.90;;
8058;SDS011;4072;42.668;23.396;2023-07-24T03:36:53;12.03;;;8.77;;
8058;SDS011;4072;42.668;23.396;2023-07-24T03:39:21;13.77;;;9.90;;
8058;SDS011;4072;42.668;23.396;2023-07-24T03:41:49;11.37;;;9.77;;
8058;SDS011;4072;42.668;23.396;2023-07-24T03:44:19;11.73;;;9.07;;
8058;SDS011;4072;42.668;23.396;2023-07-24T03:46:47;11.73;;;9.23;;
8058;SDS011;4072;42.668;23.396;2023-07-24T03:49:16;10.53;;;8.67;;
8058;SDS011;4072;42.668;23.396;2023-07-24T03:51:45;10.07;;;9.00;;
8058;SDS011;4072;42.668;23.396;2023-07-24T03:54:14;12.77;;;9.10;;
8058;SDS011;4072;42.668;23.396;2023-07-24T03:56:42;11.57;;;8.97;;
8058;SDS011;4072;42.668;23.396;2023-07-24T03:59:10;13.27;;;9.73;;
8058;SDS011;4072;42.668;23.396;2023-07-24T04:01:41;15.13;;;10.93;;
8058;SDS011;4072;42.668;23.396;2023-07-24T04:04:09;12.40;;;11.10;;
8058;SDS011;4072;42.668;23.396;2023-07-24T04:06:38;15.40;;;10.93;;
8058;SDS011;4072;42.668;23.396;2023-07-24T04:09:06;11.27;;;9.67;;
8058;SDS011;4072;42.668;23.396;2023-07-24T04:11:35;13.97;;;10.00;;
8058;SDS011;4072;42.668;23.396;2023-07-24T04:14:05;11.73;;;9.13;;
8058;SDS011;4072;42.668;23.396;2023-07-24T04:16:33;16.53;;;12.77;;
8058;SDS011;4072;42.668;23.396;2023-07-24T04:19:04;19.30;;;12.37;;
8058;SDS011;4072;42.668;23.396;2023-07-24T04:21:33;20.70;;;14.17;;
8058;SDS011;4072;42.668;23.396;2023-07-24T04:24:02;21.57;;;14.07;;
8058;SDS011;4072;42.668;23.396;2023-07-24T04:26:31;18.80;;;15.47;;
8058;SDS011;4072;42.668;23.396;2023-07-24T04:29:03;23.93;;;17.37;;
8058;SDS011;4072;42.668;23.396;2023-07-24T04:31:34;29.27;;;21.87;;
8058;SDS011;4072;42.668;23.396;2023-07-24T04:34:02;24.17;;;18.93;;
8058;SDS011;4072;42.668;23.396;2023-07-24T04:36:32;26.33;;;17.93;;
8058;SDS011;4072;42.668;23.396;2023-07-24T04:39:04;23.57;;;16.73;;
8058;SDS011;4072;42.668;23.396;2023-07-24T04:41:32;17.70;;;14.17;;
8058;SDS011;4072;42.668;23.396;2023-07-24T04:44:01;16.67;;;13.83;;
8058;SDS011;4072;42.668;23.396;2023-07-24T04:46:29;18.87;;;14.30;;
8058;SDS011;4072;42.668;23.396;2023-07-24T04:48:58;20.63;;;12.60;;
8058;SDS011;4072;42.668;23.396;2023-07-24T04:51:27;13.03;;;10.70;;
8058;SDS011;4072;42.668;23.396;2023-07-24T04:53:56;10.93;;;9.37;;
8058;SDS011;4072;42.668;23.396;2023-07-24T04:56:25;14.40;;;11.33;;
8058;SDS011;4072;42.668;23.396;2023-07-24T04:58:54;18.73;;;12.03;;
8058;SDS011;4072;42.668;23.396;2023-07-24T05:01:25;19.60;;;14.13;;
8058;SDS011;4072;42.668;23.396;2023-07-24T05:03:55;17.88;;;13.75;;
8058;SDS011;4072;42.668;23.396;2023-07-24T05:06:23;17.40;;;12.97;;
8058;SDS011;4072;42.668;23.396;2023-07-24T05:08:52;16.38;;;12.88;;
8058;SDS011;4072;42.668;23.396;2023-07-24T05:11:22;16.83;;;12.55;;
8058;SDS011;4072;42.668;23.396;2023-07-24T05:13:50;16.88;;;11.95;;
8058;SDS011;4072;42.668;23.396;2023-07-24T05:16:19;18.05;;;12.43;;
8058;SDS011;4072;42.668;23.396;2023-07-24T05:18:47;15.88;;;11.85;;
8058;SDS011;4072;42.668;23.396;2023-07-24T05:21:16;15.35;;;11.23;;
8058;SDS011;4072;42.668;23.396;2023-07-24T05:23:44;15.68;;;11.95;;
8058;SDS011;4072;42.668;23.396;2023-07-24T05:26:13;14.05;;;10.88;;
8058;SDS011;4072;42.668;23.396;2023-07-24T05:28:43;12.32;;;9.65;;
8058;SDS011;4072;42.668;23.396;2023-07-24T05:31:12;10.82;;;9.73;;
8058;SDS011;4072;42.668;23.396;2023-07-24T05:33:41;11.35;;;10.02;;
8058;SDS011;4072;42.668;23.396;2023-07-24T05:36:09;16.17;;;10.68;;
8058;SDS011;4072;42.668;23.396;2023-07-24T05:38:37;14.23;;;9.95;;
8058;SDS011;4072;42.668;23.396;2023-07-24T05:41:05;14.25;;;10.35;;
8058;SDS011;4072;42.668;23.396;2023-07-24T05:43:33;13.05;;;9.45;;
8058;SDS011;4072;42.668;23.396;2023-07-24T05:46:03;11.52;;;8.63;;
8058;SDS011;4072;42.668;23.396;2023-07-24T05:48:34;12.10;;;9.38;;
8058;SDS011;4072;42.668;23.396;2023-07-24T05:51:03;11.15;;;8.32;;
8058;SDS011;4072;42.668;23.396;2023-07-24T05:53:32;11.50;;;9.05;;
8058;SDS011;4072;42.668;23.396;2023-07-24T05:56:00;10.75;;;8.98;;
8058;SDS011;4072;42.668;23.396;2023-07-24T05:58:31;11.38;;;8.70;;
8058;SDS011;4072;42.668;23.396;2023-07-24T06:01:01;8.73;;;7.82;;
8058;SDS011;4072;42.668;23.396;2023-07-24T06:03:31;8.77;;;7.70;;
8058;SDS011;4072;42.668;23.396;2023-07-24T06:06:00;13.65;;;7.97;;
8058;SDS011;4072;42.668;23.396;2023-07-24T06:08:28;9.85;;;8.35;;
8058;SDS011;4072;42.668;23.396;2023-07-24T06:10:56;11.63;;;8.32;;
8058;SDS011;4072;42.668;23.396;2023-07-24T06:13:25;10.15;;;8.35;;
8058;SDS011;4072;42.668;23.396;2023-07-24T06:15:53;15.20;;;8.43;;
8058;SDS011;4072;42.668;23.396;2023-07-24T06:18:22;11.43;;;8.15;;
8058;SDS011;4072;42.668;23.396;2023-07-24T06:20:52;15.23;;;8.32;;
8058;SDS011;4072;42.668;23.396;2023-07-24T06:23:21;11.10;;;8.60;;
8058;SDS011;4072;42.668;23.396;2023-07-24T06:25:51;12.82;;;8.20;;
8058;SDS011;4072;42.668;23.396;2023-07-24T06:28:20;10.80;;;7.75;;
8058;SDS011;4072;42.668;23.396;2023-07-24T06:30:51;10.13;;;7.05;;
8058;SDS011;4072;42.668;23.396;2023-07-24T06:33:20;12.68;;;8.70;;
8058;SDS011;4072;42.668;23.396;2023-07-24T06:35:50;8.68;;;7.65;;
8058;SDS011;4072;42.668;23.396;2023-07-24T06:38:18;9.02;;;7.85;;
8058;SDS011;4072;42.668;23.396;2023-07-24T06:40:48;9.55;;;7.57;;
8058;SDS011;4072;42.668;23.396;2023-07-24T06:43:17;11.75;;;7.78;;
8058;SDS011;4072;42.668;23.396;2023-07-24T06:45:45;9.63;;;7.50;;
8058;SDS011;4072;42.668;23.396;2023-07-24T06:48:14;9.40;;;7.32;;
8058;SDS011;4072;42.668;23.396;2023-07-24T06:50:44;9.63;;;8.50;;
8058;SDS011;4072;42.668;23.396;2023-07-24T06:53:12;9.82;;;8.48;;
8058;SDS011;4072;42.668;23.396;2023-07-24T06:55:41;10.10;;;8.57;;
8058;SDS011;4072;42.668;23.396;2023-07-24T06:58:10;12.90;;;9.60;;
8058;SDS011;4072;42.668;23.396;2023-07-24T07:00:38;10.25;;;8.25;;
8058;SDS011;4072;42.668;23.396;2023-07-24T07:03:07;12.52;;;7.70;;
8058;SDS011;4072;42.668;23.396;2023-07-24T07:05:35;12.75;;;8.10;;
8058;SDS011;4072;42.668;23.396;2023-07-24T07:08:05;9.30;;;7.43;;
8058;SDS011;4072;42.668;23.396;2023-07-24T07:10:33;10.10;;;7.75;;
8058;SDS011;4072;42.668;23.396;2023-07-24T07:13:01;11.70;;;10.23;;
8058;SDS011;4072;42.668;23.396;2023-07-24T07:15:30;11.35;;;7.95;;
8058;SDS011;4072;42.668;23.396;2023-07-24T07:17:58;9.95;;;8.25;;
8058;SDS011;4072;42.668;23.396;2023-07-24T07:20:27;11.02;;;7.93;;
8058;SDS011;4072;42.668;23.396;2023-07-24T07:22:55;12.88;;;8.77;;
8058;SDS011;4072;42.668;23.396;2023-07-24T07:25:25;9.10;;;7.88;;
8058;SDS011;4072;42.668;23.396;2023-07-24T07:27:53;11.18;;;8.18;;
8058;SDS011;4072;42.668;23.396;2023-07-24T07:30:21;10.43;;;8.18;;
8058;SDS011;4072;42.668;23.396;2023-07-24T07:32:50;10.35;;;8.52;;
8058;SDS011;4072;42.668;23.396;2023-07-24T07:35:21;11.77;;;8.68;;
8058;SDS011;4072;42.668;23.396;2023-07-24T07:37:51;10.35;;;8.25;;
8058;SDS011;4072;42.668;23.396;2023-07-24T07:40:20;10.07;;;8.85;;
8058;SDS011;4072;42.668;23.396;2023-07-24T07:42:51;9.90;;;8.35;;
8058;SDS011;4072;42.668;23.396;2023-07-24T07:45:19;11.50;;;9.07;;
8058;SDS011;4072;42.668;23.396;2023-07-24T07:47:48;10.85;;;8.35;;
8058;SDS011;4072;42.668;23.396;2023-07-24T07:50:17;10.65;;;8.40;;
8058;SDS011;4072;42.668;23.396;2023-07-24T07:52:45;9.63;;;8.57;;
8058;SDS011;4072;42.668;23.396;2023-07-24T07:55:17;12.98;;;8.90;;
8058;SDS011;4072;42.668;23.396;2023-07-24T07:57:47;10.52;;;9.45;;
8058;SDS011;4072;42.668;23.396;2023-07-24T08:00:18;13.93;;;8.75;;
8058;SDS011;4072;42.668;23.396;2023-07-24T08:02:46;11.48;;;9.65;;
8058;SDS011;4072;42.668;23.396;2023-07-24T08:05:14;11.38;;;9.10;;
8058;SDS011;4072;42.668;23.396;2023-07-24T08:07:47;10.98;;;8.50;;
8058;SDS011;4072;42.668;23.396;2023-07-24T08:10:15;10.30;;;9.23;;
8058;SDS011;4072;42.668;23.396;2023-07-24T08:12:43;15.23;;;10.50;;
8058;SDS011;4072;42.668;23.396;2023-07-24T08:15:12;14.60;;;10.55;;
8058;SDS011;4072;42.668;23.396;2023-07-24T08:17:42;12.68;;;9.68;;
8058;SDS011;4072;42.668;23.396;2023-07-24T08:20:10;10.65;;;9.45;;
8058;SDS011;4072;42.668;23.396;2023-07-24T08:22:40;11.07;;;9.50;;
8058;SDS011;4072;42.668;23.396;2023-07-24T08:25:09;11.35;;;9.35;;
8058;SDS011;4072;42.668;23.396;2023-07-24T08:27:37;13.43;;;9.95;;
8058;SDS011;4072;42.668;23.396;2023-07-24T08:30:25;11.68;;;9.85;;
8058;SDS011;4072;42.668;23.396;2023-07-24T08:32:55;12.20;;;10.38;;
8058;SDS011;4072;42.668;23.396;2023-07-24T08:35:24;13.20;;;10.85;;
8058;SDS011;4072;42.668;23.396;2023-07-24T08:37:53;10.60;;;9.50;;
8058;SDS011;4072;42.668;23.396;2023-07-24T08:40:22;11.93;;;9.95;;
8058;SDS011;4072;42.668;23.396;2023-07-24T08:42:50;12.60;;;10.35;;
8058;SDS011;4072;42.668;23.396;2023-07-24T08:45:20;15.85;;;10.95;;
8058;SDS011;4072;42.668;23.396;2023-07-24T08:47:51;12.23;;;10.85;;
8058;SDS011;4072;42.668;23.396;2023-07-24T08:50:21;11.80;;;9.80;;
8058;SDS011;4072;42.668;23.396;2023-07-24T08:52:51;13.57;;;10.38;;
8058;SDS011;4072;42.668;23.396;2023-07-24T08:55:20;13.88;;;10.45;;
8058;SDS011;4072;42.668;23.396;2023-07-24T08:57:49;13.18;;;10.82;;
8058;SDS011;4072;42.668;23.396;2023-07-24T09:00:18;13.35;;;11.95;;
8058;SDS011;4072;42.668;23.396;2023-07-24T09:02:46;14.15;;;10.85;;
8058;SDS011;4072;42.668;23.396;2023-07-24T09:05:14;13.05;;;10.48;;
8058;SDS011;4072;42.668;23.396;2023-07-24T09:07:46;14.07;;;10.90;;
8058;SDS011;4072;42.668;23.396;2023-07-24T09:10:15;13.43;;;10.40;;
8058;SDS011;4072;42.668;23.396;2023-07-24T09:12:44;10.85;;;9.73;;
8058;SDS011;4072;42.668;23.396;2023-07-24T09:15:14;12.93;;;9.27;;
8058;SDS011;4072;42.668;23.396;2023-07-24T09:17:48;11.82;;;10.02;;
8058;SDS011;4072;42.668;23.396;2023-07-24T09:20:19;15.98;;;9.68;;
8058;SDS011;4072;42.668;23.396;2023-07-24T09:22:55;14.73;;;10.10;;
8058;SDS011;4072;42.668;23.396;2023-07-24T09:25:42;14.73;;;10.70;;
8058;SDS011;4072;42.668;23.396;2023-07-24T09:28:12;16.38;;;9.80;;
8058;SDS011;4072;42.668;23.396;2023-07-24T09:30:51;17.00;;;10.18;;
8058;SDS011;4072;42.668;23.396;2023-07-24T09:33:21;13.30;;;10.27;;
8058;SDS011;4072;42.668;23.396;2023-07-24T09:35:57;14.18;;;10.30;;
8058;SDS011;4072;42.668;23.396;2023-07-24T09:38:27;13.75;;;10.55;;
8058;SDS011;4072;42.668;23.396;2023-07-24T09:41:00;14.23;;;9.90;;
8058;SDS011;4072;42.668;23.396;2023-07-24T09:43:29;15.30;;;10.27;;
8058;SDS011;4072;42.668;23.396;2023-07-24T09:46:00;15.00;;;10.27;;
8058;SDS011;4072;42.668;23.396;2023-07-24T09:48:31;13.23;;;9.88;;
8058;SDS011;4072;42.668;23.396;2023-07-24T09:51:05;13.32;;;10.20;;
8058;SDS011;4072;42.668;23.396;2023-07-24T09:53:36;13.30;;;9.73;;
8058;SDS011;4072;42.668;23.396;2023-07-24T09:56:11;16.83;;;10.65;;
8058;SDS011;4072;42.668;23.396;2023-07-24T09:58:39;15.18;;;10.60;;
8058;SDS011;4072;42.668;23.396;2023-07-24T10:01:08;17.25;;;10.48;;
8058;SDS011;4072;42.668;23.396;2023-07-24T10:03:38;12.20;;;9.48;;
8058;SDS011;4072;42.668;23.396;2023-07-24T10:06:09;15.85;;;9.30;;
8058;SDS011;4072;42.668;23.396;2023-07-24T10:08:42;13.07;;;10.77;;
8058;SDS011;4072;42.668;23.396;2023-07-24T10:11:12;11.77;;;9.70;;
8058;SDS011;4072;42.668;23.396;2023-07-24T10:13:42;17.13;;;12.02;;
8058;SDS011;4072;42.668;23.396;2023-07-24T10:16:11;12.63;;;9.65;;
8058;SDS011;4072;42.668;23.396;2023-07-24T10:18:42;12.95;;;9.23;;
8058;SDS011;4072;42.668;23.396;2023-07-24T10:21:14;12.70;;;10.32;;
8058;SDS011;4072;42.668;23.396;2023-07-24T10:23:45;15.25;;;10.80;;
8058;SDS011;4072;42.668;23.396;2023-07-24T10:26:14;14.00;;;10.27;;
8058;SDS011;4072;42.668;23.396;2023-07-24T10:28:46;16.13;;;11.18;;
8058;SDS011;4072;42.668;23.396;2023-07-24T10:31:20;14.63;;;10.27;;
8058;SDS011;4072;42.668;23.396;2023-07-24T10:33:50;12.30;;;10.00;;
8058;SDS011;4072;42.668;23.396;2023-07-24T10:36:21;12.45;;;9.98;;
8058;SDS011;4072;42.668;23.396;2023-07-24T10:38:53;14.82;;;9.90;;
8058;SDS011;4072;42.668;23.396;2023-07-24T10:41:34;15.65;;;10.63;;
8058;SDS011;4072;42.668;23.396;2023-07-24T10:44:03;12.43;;;9.90;;
8058;SDS011;4072;42.668;23.396;2023-07-24T10:46:35;13.35;;;10.32;;
8058;SDS011;4072;42.668;23.396;2023-07-24T10:49:04;15.23;;;9.88;;
8058;SDS011;4072;42.668;23.396;2023-07-24T10:51:35;14.40;;;10.02;;
8058;SDS011;4072;42.668;23.396;2023-07-24T10:54:06;14.60;;;10.13;;
8058;SDS011;4072;42.668;23.396;2023-07-24T10:56:36;13.27;;;9.95;;
8058;SDS011;4072;42.668;23.396;2023-07-24T10:59:05;15.27;;;9.95;;
8058;SDS011;4072;42.668;23.396;2023-07-24T11:01:33;19.40;;;10.15;;
8058;SDS011;4072;42.668;23.396;2023-07-24T11:04:02;13.68;;;10.07;;
8058;SDS011;4072;42.668;23.396;2023-07-24T11:06:34;18.40;;;10.57;;
8058;SDS011;4072;42.668;23.396;2023-07-24T11:09:37;15.10;;;10.18;;
8058;SDS011;4072;42.668;23.396;2023-07-24T11:12:10;12.48;;;9.75;;
8058;SDS011;4072;42.668;23.396;2023-07-24T11:14:49;15.45;;;10.65;;
8058;SDS011;4072;42.668;23.396;2023-07-24T11:17:20;15.73;;;9.15;;
8058;SDS011;4072;42.668;23.396;2023-07-24T11:20:05;14.68;;;9.93;;
8058;SDS011;4072;42.668;23.396;2023-07-24T11:22:35;13.23;;;9.15;;
8058;SDS011;4072;42.668;23.396;2023-07-24T11:25:06;17.42;;;10.82;;
8058;SDS011;4072;42.668;23.396;2023-07-24T11:27:39;12.48;;;8.82;;
8058;SDS011;4072;42.668;23.396;2023-07-24T11:30:11;17.60;;;9.10;;
8058;SDS011;4072;42.668;23.396;2023-07-24T11:32:40;14.90;;;9.27;;
8058;SDS011;4072;42.668;23.396;2023-07-24T11:35:10;17.15;;;8.90;;
8058;SDS011;4072;42.668;23.396;2023-07-24T11:37:40;11.27;;;8.82;;
8058;SDS011;4072;42.668;23.396;2023-07-24T11:40:10;17.08;;;11.35;;
8058;SDS011;4072;42.668;23.396;2023-07-24T11:42:42;11.52;;;8.88;;
8058;SDS011;4072;42.668;23.396;2023-07-24T11:45:12;12.98;;;8.52;;
8058;SDS011;4072;42.668;23.396;2023-07-24T11:47:41;14.50;;;9.38;;
8058;SDS011;4072;42.668;23.396;2023-07-24T11:50:12;11.35;;;8.40;;
8058;SDS011;4072;42.668;23.396;2023-07-24T11:52:41;12.30;;;8.55;;
8058;SDS011;4072;42.668;23.396;2023-07-24T11:55:15;10.80;;;8.75;;
8058;SDS011;4072;42.668;23.396;2023-07-24T11:57:54;12.80;;;8.18;;
8058;SDS011;4072;42.668;23.396;2023-07-24T12:00:24;9.45;;;7.90;;
8058;SDS011;4072;42.668;23.396;2023-07-24T12:02:53;14.15;;;7.80;;
8058;SDS011;4072;42.668;23.396;2023-07-24T12:05:28;12.70;;;8.05;;
8058;SDS011;4072;42.668;23.396;2023-07-24T12:07:57;12.73;;;8.23;;
8058;SDS011;4072;42.668;23.396;2023-07-24T12:10:31;15.32;;;8.27;;
8058;SDS011;4072;42.668;23.396;2023-07-24T12:13:06;11.23;;;7.75;;
8058;SDS011;4072;42.668;23.396;2023-07-24T12:15:35;10.70;;;8.38;;
8058;SDS011;4072;42.668;23.396;2023-07-24T12:18:05;12.05;;;8.63;;
8058;SDS011;4072;42.668;23.396;2023-07-24T12:20:35;9.68;;;7.05;;
8058;SDS011;4072;42.668;23.396;2023-07-24T12:23:03;11.85;;;8.30;;
8058;SDS011;4072;42.668;23.396;2023-07-24T12:25:34;8.50;;;7.60;;
8058;SDS011;4072;42.668;23.396;2023-07-24T12:28:03;18.17;;;9.10;;
8058;SDS011;4072;42.668;23.396;2023-07-24T12:30:32;13.55;;;8.95;;
8058;SDS011;4072;42.668;23.396;2023-07-24T12:33:00;12.18;;;8.32;;
8058;SDS011;4072;42.668;23.396;2023-07-24T12:35:29;11.77;;;8.00;;
8058;SDS011;4072;42.668;23.396;2023-07-24T12:37:59;10.68;;;8.15;;
8058;SDS011;4072;42.668;23.396;2023-07-24T12:40:27;11.52;;;8.00;;
8058;SDS011;4072;42.668;23.396;2023-07-24T12:42:57;11.65;;;7.85;;
8058;SDS011;4072;42.668;23.396;2023-07-24T12:45:27;11.07;;;7.60;;
8058;SDS011;4072;42.668;23.396;2023-07-24T12:47:55;9.80;;;8.68;;
8058;SDS011;4072;42.668;23.396;2023-07-24T12:50:24;11.77;;;8.57;;
8058;SDS011;4072;42.668;23.396;2023-07-24T12:52:52;13.23;;;8.10;;
8058;SDS011;4072;42.668;23.396;2023-07-24T12:55:21;9.57;;;8.05;;
8058;SDS011;4072;42.668;23.396;2023-07-24T12:57:50;12.98;;;8.38;;
8058;SDS011;4072;42.668;23.396;2023-07-24T13:00:20;11.00;;;7.95;;
8058;SDS011;4072;42.668;23.396;2023-07-24T13:02:48;13.77;;;8.57;;
8058;SDS011;4072;42.668;23.396;2023-07-24T13:05:17;10.02;;;7.38;;
8058;SDS011;4072;42.668;23.396;2023-07-24T13:07:45;10.77;;;8.07;;
8058;SDS011;4072;42.668;23.396;2023-07-24T13:10:14;12.20;;;7.53;;
8058;SDS011;4072;42.668;23.396;2023-07-24T13:12:42;14.13;;;8.48;;
8058;SDS011;4072;42.668;23.396;2023-07-24T13:15:13;13.48;;;8.93;;
8058;SDS011;4072;42.668;23.396;2023-07-24T13:17:44;8.38;;;7.25;;
8058;SDS011;4072;42.668;23.396;2023-07-24T13:20:13;9.23;;;7.97;;
8058;SDS011;4072;42.668;23.396;2023-07-24T13:22:41;15.93;;;7.80;;
8058;SDS011;4072;42.668;23.396;2023-07-24T13:25:13;12.10;;;7.65;;
8058;SDS011;4072;42.668;23.396;2023-07-24T13:27:42;10.70;;;7.88;;
8058;SDS011;4072;42.668;23.396;2023-07-24T13:30:10;11.18;;;8.25;;
8058;SDS011;4072;42.668;23.396;2023-07-24T13:32:39;10.07;;;8.27;;
8058;SDS011;4072;42.668;23.396;2023-07-24T13:35:09;10.77;;;8.75;;
8058;SDS011;4072;42.668;23.396;2023-07-24T13:37:38;10.85;;;8.73;;
8058;SDS011;4072;42.668;23.396;2023-07-24T13:40:07;10.63;;;8.10;;
8058;SDS011;4072;42.668;23.396;2023-07-24T13:42:36;13.05;;;7.55;;
8058;SDS011;4072;42.668;23.396;2023-07-24T13:45:05;9.85;;;8.10;;
8058;SDS011;4072;42.668;23.396;2023-07-24T13:47:35;10.23;;;8.27;;
8058;SDS011;4072;42.668;23.396;2023-07-24T13:50:04;11.95;;;8.45;;
8058;SDS011;4072;42.668;23.396;2023-07-24T13:52:35;11.30;;;7.97;;
8058;SDS011;4072;42.668;23.396;2023-07-24T13:55:04;8.15;;;7.35;;
8058;SDS011;4072;42.668;23.396;2023-07-24T13:57:33;9.05;;;7.22;;
8058;SDS011;4072;42.668;23.396;2023-07-24T14:00:02;12.48;;;8.35;;
8058;SDS011;4072;42.668;23.396;2023-07-24T14:02:31;9.57;;;7.97;;
8058;SDS011;4072;42.668;23.396;2023-07-24T14:05:00;10.68;;;7.93;;
8058;SDS011;4072;42.668;23.396;2023-07-24T14:07:28;10.27;;;8.63;;
8058;SDS011;4072;42.668;23.396;2023-07-24T14:09:58;12.43;;;8.82;;
8058;SDS011;4072;42.668;23.396;2023-07-24T14:12:26;8.38;;;6.97;;
8058;SDS011;4072;42.668;23.396;2023-07-24T14:14:54;10.55;;;8.07;;
8058;SDS011;4072;42.668;23.396;2023-07-24T14:17:22;10.13;;;8.38;;
8058;SDS011;4072;42.668;23.396;2023-07-24T14:19:50;11.10;;;9.07;;
8058;SDS011;4072;42.668;23.396;2023-07-24T14:22:19;10.65;;;7.93;;
8058;SDS011;4072;42.668;23.396;2023-07-24T14:24:47;12.40;;;8.55;;
8058;SDS011;4072;42.668;23.396;2023-07-24T14:27:17;9.95;;;8.70;;
8058;SDS011;4072;42.668;23.396;2023-07-24T14:29:45;13.90;;;9.15;;
8058;SDS011;4072;42.668;23.396;2023-07-24T14:32:13;8.82;;;7.85;;
8058;SDS011;4072;42.668;23.396;2023-07-24T14:34:42;10.52;;;9.20;;
8058;SDS011;4072;42.668;23.396;2023-07-24T14:37:11;10.20;;;8.73;;
8058;SDS011;4072;42.668;23.396;2023-07-24T14:39:40;11.70;;;8.93;;
8058;SDS011;4072;42.668;23.396;2023-07-24T14:42:08;10.77;;;9.13;;
8058;SDS011;4072;42.668;23.396;2023-07-24T14:44:38;9.38;;;8.48;;
8058;SDS011;4072;42.668;23.396;2023-07-24T14:47:06;11.75;;;9.00;;
8058;SDS011;4072;42.668;23.396;2023-07-24T14:49:35;12.20;;;8.93;;
8058;SDS011;4072;42.668;23.396;2023-07-24T14:52:03;13.23;;;8.73;;
8058;SDS011;4072;42.668;23.396;2023-07-24T14:54:32;11.80;;;9.05;;
8058;SDS011;4072;42.668;23.396;2023-07-24T14:57:05;11.90;;;8.30;;
8058;SDS011;4072;42.668;23.396;2023-07-24T14:59:51;10.15;;;8.35;;